KMEZ

Mena Intermountain Municipal Airport

Mena, Arkansas, USA
METAR KMEZ 190315Z AUTO 00000KT 10SM CLR 01/M11 A3033 RMK AO2
Observed Flight Rules
Jan-19 @ 03:15 UTC (30 minutes ago) Visual Flight Rules
Wind Visibility Clouds
Calm 10 miles
  • Clear skies
Temperatures Readings
Current 1°C / 34°F
Dewpoint -11°C / 12°F
Humidity 41%
Altimeter 30.33" Hg
Pressure 1027 hPa
Elevation 329
METAR KMEZ 190315Z AUTO 00000KT 10SM CLR 01/M11 A3033 RMK AO2
Observed Flight Rules
Jan-19 @ 03:15 UTC
(30 minutes ago)
VFR
Wind Visibility
Calm 10 miles
Clouds
  • Clear skies
Temperature Dewpoint
1°C / 34°F -11°C / 12°F
Humidity Altimeter Pressure
41% 30.33" Hg 1027 hPa